Time;durP1;ratioP1;P1;durP2;ratioP2;P2;SDS_P1;SDS_P2;PMS_P1;PMS_P2;Temp;Humidity;BMP_temperature;BMP_pressure;BME280_temperature;BME280_humidity;BME280_pressure;Samples;Min_cycle;Max_cycle;Signal;HPM_P1;HPM_P2
2023/06/14 00:00:19;;;;;;;9.93;4.47;;;;;;;23.26;45.89;101636.56;5105065;28;20035;-80
2023/06/14 00:02:45;;;;;;;14.50;4.75;;;;;;;23.12;45.83;101630.72;5097646;28;20028;-81
2023/06/14 00:05:14;;;;;;;8.45;4.25;;;;;;;23.51;45.27;101625.28;5096943;28;20399;-80
2023/06/14 00:07:48;;;;;;;11.38;4.38;;;;;;;23.17;46.18;101627.97;5117754;28;20243;-80
2023/06/14 00:10:14;;;;;;;9.55;4.50;;;;;;;23.10;46.73;101632.59;5111853;28;20027;-81
2023/06/14 00:12:45;;;;;;;8.07;4.50;;;;;;;23.35;46.11;101646.09;5111985;28;20035;-81
2023/06/14 00:15:14;;;;;;;10.98;4.50;;;;;;;23.40;46.14;101641.53;5111474;28;20063;-81
2023/06/14 00:17:39;;;;;;;10.65;4.40;;;;;;;23.32;45.81;101644.38;5112375;28;20058;-81
2023/06/14 00:20:07;;;;;;;10.23;4.68;;;;;;;22.98;47.00;101644.41;5112481;28;20103;-80
2023/06/14 00:22:33;;;;;;;9.50;5.00;;;;;;;23.20;46.50;101649.16;5112158;28;20507;-82
2023/06/14 00:25:06;;;;;;;11.05;4.70;;;;;;;23.31;45.97;101647.09;5110317;28;20032;-81
2023/06/14 00:27:31;;;;;;;8.68;4.82;;;;;;;22.84;47.42;101645.66;5111482;28;20093;-81
2023/06/14 00:29:58;;;;;;;8.45;4.50;;;;;;;23.18;46.50;101646.53;5092627;28;20036;-81
2023/06/14 00:32:27;;;;;;;8.75;4.45;;;;;;;23.25;46.28;101649.91;5112180;28;20111;-81
2023/06/14 00:34:53;;;;;;;10.75;4.78;;;;;;;23.08;46.66;101646.81;5114454;28;20039;-81
2023/06/14 00:37:18;;;;;;;11.60;5.13;;;;;;;23.16;46.41;101644.84;5118700;28;20057;-82
2023/06/14 00:40:04;;;;;;;11.13;4.63;;;;;;;23.04;46.67;101646.91;5099355;28;20176;-80
2023/06/14 00:42:29;;;;;;;7.97;4.68;;;;;;;23.03;46.26;101637.19;5117689;28;20047;-80
2023/06/14 00:44:58;;;;;;;9.40;4.72;;;;;;;23.02;46.41;101646.06;5112280;28;20055;-81
2023/06/14 00:47:29;;;;;;;10.52;4.78;;;;;;;23.01;45.95;101640.78;5097228;28;20028;-81
2023/06/14 00:50:00;;;;;;;8.68;4.70;;;;;;;22.80;46.83;101642.22;5115662;28;20632;-80
2023/06/14 00:52:25;;;;;;;9.00;4.70;;;;;;;22.75;46.73;101644.09;5114147;28;20050;-80
2023/06/14 00:54:53;;;;;;;7.78;5.15;;;;;;;22.76;46.31;101643.19;5092566;28;20035;-81
2023/06/14 00:57:21;;;;;;;9.30;4.75;;;;;;;22.73;46.19;101635.31;5093021;28;20032;-81
2023/06/14 00:59:49;;;;;;;8.25;4.85;;;;;;;22.78;45.91;101643.16;5110177;28;20499;-81
2023/06/14 01:02:15;;;;;;;10.80;4.75;;;;;;;22.63;45.86;101641.72;5112365;28;20035;-80
2023/06/14 01:04:47;;;;;;;9.65;4.57;;;;;;;22.73;45.38;101645.06;5111210;28;20492;-80
2023/06/14 01:07:50;;;;;;;9.95;4.55;;;;;;;22.65;45.12;101640.78;5110677;28;20042;-80
2023/06/14 01:10:49;;;;;;;10.15;4.50;;;;;;;22.54;44.92;101642.81;5111603;28;20057;-79
2023/06/14 01:13:27;;;;;;;9.70;4.47;;;;;;;22.60;44.71;101640.00;5092603;28;20065;-81
2023/06/14 01:15:54;;;;;;;7.70;4.68;;;;;;;22.55;44.28;101633.94;5091847;28;20131;-80
2023/06/14 01:18:19;;;;;;;9.52;4.50;;;;;;;22.49;44.17;101638.53;5093567;28;20111;-80
2023/06/14 01:20:49;;;;;;;9.77;4.45;;;;;;;22.53;44.28;101643.72;5110036;28;20085;-80
2023/06/14 01:23:19;;;;;;;8.35;4.85;;;;;;;22.27;43.96;101635.47;5110681;28;20044;-82
2023/06/14 01:25:44;;;;;;;9.10;4.65;;;;;;;22.29;44.17;101638.09;5093444;28;20114;-80
2023/06/14 01:28:16;;;;;;;9.50;4.80;;;;;;;22.38;43.70;101641.44;5114950;28;20412;-81
2023/06/14 01:30:54;;;;;;;9.48;4.68;;;;;;;22.42;43.60;101642.22;5103678;28;20119;-81
2023/06/14 01:33:26;;;;;;;7.75;4.20;;;;;;;22.38;43.55;101641.44;5114682;28;20032;-80
2023/06/14 01:35:52;;;;;;;9.20;4.20;;;;;;;22.35;43.46;101644.16;5114919;28;20093;-82
2023/06/14 01:38:20;;;;;;;9.23;4.57;;;;;;;22.23;43.27;101647.97;5097228;28;20356;-82
2023/06/14 01:40:47;;;;;;;7.30;4.60;;;;;;;22.08;43.67;101644.78;5114851;28;20043;-82
2023/06/14 01:43:17;;;;;;;8.60;4.60;;;;;;;22.18;43.42;101641.88;5096671;28;20402;-80
2023/06/14 01:45:45;;;;;;;11.50;4.80;;;;;;;22.10;43.89;101642.97;5114857;28;20063;-80
2023/06/14 01:48:14;;;;;;;12.85;4.40;;;;;;;21.94;43.59;101637.09;5115644;28;20035;-80
2023/06/14 01:50:39;;;;;;;9.25;4.57;;;;;;;22.15;43.21;101641.06;5096873;28;20127;-81
2023/06/14 01:53:09;;;;;;;8.25;4.95;;;;;;;21.60;44.47;101639.53;5096749;28;20112;-81
2023/06/14 01:55:37;;;;;;;9.35;4.70;;;;;;;21.97;43.60;101633.50;5098218;28;20075;-81
2023/06/14 01:58:11;;;;;;;8.85;4.82;;;;;;;21.83;44.04;101631.13;5118590;28;20058;-83
2023/06/14 02:00:37;;;;;;;8.93;4.68;;;;;;;22.01;43.73;101632.56;5117144;28;20035;-81
2023/06/14 02:03:12;;;;;;;7.30;4.35;;;;;;;21.99;43.60;101637.00;5117344;28;20048;-80
2023/06/14 02:05:39;;;;;;;7.88;4.88;;;;;;;21.59;43.58;101640.44;5122063;28;20035;-79
2023/06/14 02:08:14;;;;;;;11.48;4.57;;;;;;;21.89;43.15;101638.09;5117706;28;20500;-82
2023/06/14 02:10:39;;;;;;;8.85;4.53;;;;;;;21.89;43.26;101638.97;5117191;28;20042;-82
2023/06/14 02:13:05;;;;;;;9.55;4.60;;;;;;;21.74;43.70;101642.81;5118292;28;20027;-81
2023/06/14 02:15:43;;;;;;;6.72;4.32;;;;;;;21.79;43.65;101634.72;5117141;28;20039;-82
2023/06/14 02:18:09;;;;;;;8.93;4.63;;;;;;;21.72;43.71;101638.41;5117193;28;20039;-82
2023/06/14 02:20:50;;;;;;;9.18;4.40;;;;;;;21.64;44.27;101645.69;5114342;28;20044;-81
2023/06/14 02:23:15;;;;;;;7.03;4.57;;;;;;;21.64;44.12;101635.94;5113800;28;20039;-81
2023/06/14 02:25:41;;;;;;;7.35;4.63;;;;;;;21.63;44.35;101634.19;5113327;28;20424;-81
2023/06/14 02:28:06;;;;;;;6.78;4.38;;;;;;;21.60;44.23;101636.00;5113735;28;20436;-80
2023/06/14 02:30:31;;;;;;;7.28;4.20;;;;;;;21.59;44.12;101644.91;5113882;28;20482;-81
2023/06/14 02:32:57;;;;;;;5.57;4.30;;;;;;;21.41;45.12;101641.69;5113988;28;20503;-79
2023/06/14 02:35:26;;;;;;;12.55;4.88;;;;;;;21.44;44.96;101643.41;5096157;28;20039;-81
2023/06/14 02:38:00;;;;;;;10.30;4.78;;;;;;;21.38;45.19;101648.84;5111950;28;20028;-82
2023/06/14 02:40:25;;;;;;;10.27;4.45;;;;;;;21.35;45.13;101647.09;5095471;28;20043;-81
2023/06/14 02:42:54;;;;;;;11.25;4.68;;;;;;;21.21;45.42;101653.56;5112953;28;20032;-80
2023/06/14 02:45:20;;;;;;;10.25;4.80;;;;;;;21.29;45.35;101646.34;5113595;28;20028;-80
2023/06/14 02:47:46;;;;;;;11.75;5.00;;;;;;;21.27;45.45;101654.34;5118346;28;20135;-79
2023/06/14 02:50:14;;;;;;;9.07;4.82;;;;;;;21.21;45.77;101648.28;5118668;28;20067;-77
2023/06/14 02:52:41;;;;;;;11.95;4.68;;;;;;;21.13;45.95;101655.44;5123164;28;20047;-77
2023/06/14 02:55:08;;;;;;;9.13;4.90;;;;;;;21.17;45.86;101646.56;5116054;28;20487;-81
2023/06/14 02:57:39;;;;;;;6.22;4.60;;;;;;;21.10;45.92;101661.69;5113959;28;20031;-81
2023/06/14 03:00:09;;;;;;;12.35;5.35;;;;;;;20.93;46.41;101648.72;5113330;28;20027;-82
2023/06/14 03:02:35;;;;;;;8.63;4.68;;;;;;;20.96;46.22;101653.09;5113608;28;20040;-82
2023/06/14 03:05:01;;;;;;;12.52;4.80;;;;;;;21.00;45.94;101662.75;5114340;28;20088;-79
2023/06/14 03:10:49;;;;;;;10.15;4.78;;;;;;;20.98;45.68;101668.06;5122509;22;20105;-46
2023/06/14 03:13:22;;;;;;;10.15;4.93;;;;;;;20.88;46.04;101669.13;5089794;28;20047;-46
2023/06/14 03:15:50;;;;;;;9.07;4.90;;;;;;;20.86;45.95;101662.13;5089892;28;20107;-43
2023/06/14 03:18:15;;;;;;;8.80;4.80;;;;;;;20.84;45.87;101671.84;5102941;22;20048;-45
2023/06/14 03:20:42;;;;;;;7.72;4.30;;;;;;;20.83;45.84;101673.63;5090270;28;20039;-46
2023/06/14 03:23:08;;;;;;;11.18;4.68;;;;;;;20.83;46.06;101684.22;5090760;28;20032;-45
2023/06/14 03:25:38;;;;;;;8.85;4.75;;;;;;;20.85;46.03;101668.31;5090615;28;20085;-46
2023/06/14 03:28:06;;;;;;;6.65;4.15;;;;;;;20.87;45.99;101675.31;5090384;28;20059;-48
2023/06/14 03:30:31;;;;;;;8.15;4.90;;;;;;;20.81;45.58;101671.88;5089816;28;20036;-41
2023/06/14 03:33:00;;;;;;;9.60;4.72;;;;;;;20.87;45.82;101685.91;5089516;28;20123;-47
2023/06/14 03:35:26;;;;;;;9.25;4.70;;;;;;;20.87;46.04;101691.22;5089514;28;20057;-45
2023/06/14 03:37:51;;;;;;;10.20;4.40;;;;;;;20.89;45.75;101686.78;5089378;28;20458;-49
2023/06/14 03:40:18;;;;;;;11.70;4.32;;;;;;;20.87;45.82;101685.03;5089856;28;20028;-45
2023/06/14 03:42:44;;;;;;;11.20;4.40;;;;;;;20.88;45.82;101690.31;5089533;28;20079;-45
2023/06/14 03:45:09;;;;;;;12.32;4.88;;;;;;;20.78;45.89;101690.50;5089088;28;20120;-46
2023/06/14 03:47:35;;;;;;;7.72;4.70;;;;;;;20.77;45.78;101689.63;5089740;28;20085;-48
2023/06/14 03:50:02;;;;;;;8.43;4.60;;;;;;;20.80;45.26;101689.56;5088868;28;20032;-44
2023/06/14 03:52:27;;;;;;;8.98;4.30;;;;;;;20.85;45.45;101693.03;5089199;28;20025;-47
2023/06/14 03:54:53;;;;;;;10.95;5.15;;;;;;;20.82;45.61;101697.50;5088516;28;20040;-48
2023/06/14 03:57:19;;;;;;;10.50;4.82;;;;;;;20.86;45.58;101697.41;5089588;28;20036;-51
2023/06/14 03:59:45;;;;;;;7.95;4.10;;;;;;;20.86;45.67;101699.22;5088723;28;20043;-47
2023/06/14 04:02:11;;;;;;;11.98;4.55;;;;;;;20.87;45.40;101708.91;5089461;28;20035;-49
2023/06/14 04:04:37;;;;;;;10.73;4.60;;;;;;;20.78;45.26;101703.75;5089177;28;20530;-49
2023/06/14 04:07:03;;;;;;;8.20;4.70;;;;;;;20.79;45.26;101709.03;5088928;28;20119;-47
2023/06/14 04:09:29;;;;;;;9.48;4.38;;;;;;;20.93;44.95;101714.09;5089402;28;20081;-47
2023/06/14 04:11:55;;;;;;;8.27;4.30;;;;;;;20.93;45.02;101709.69;5089022;28;20379;-43
2023/06/14 04:14:22;;;;;;;7.85;4.43;;;;;;;20.85;44.84;101711.59;5089676;28;20032;-48
2023/06/14 04:16:48;;;;;;;10.55;4.65;;;;;;;20.96;44.91;101711.41;5070784;28;20036;-45
2023/06/14 04:19:14;;;;;;;7.70;4.47;;;;;;;21.00;44.69;101713.09;5089131;28;20035;-46
2023/06/14 04:21:40;;;;;;;10.73;4.85;;;;;;;20.79;44.72;101713.47;5089508;28;20036;-45
2023/06/14 04:24:06;;;;;;;7.47;4.60;;;;;;;20.85;44.80;101708.94;5089146;28;20063;-45
2023/06/14 04:26:33;;;;;;;6.43;4.13;;;;;;;20.98;44.43;101710.47;5089004;28;20032;-44
2023/06/14 04:29:01;;;;;;;10.10;4.82;;;;;;;21.01;44.57;101713.09;5088520;28;20040;-49
2023/06/14 04:31:29;;;;;;;10.65;4.65;;;;;;;21.11;44.52;101720.88;5089133;28;20028;-48
2023/06/14 04:33:54;;;;;;;10.57;4.45;;;;;;;21.14;43.94;101720.84;5088670;28;20046;-46
2023/06/14 04:36:20;;;;;;;8.93;4.43;;;;;;;21.04;44.30;101718.31;5088836;28;20024;-50
2023/06/14 04:38:46;;;;;;;6.80;4.22;;;;;;;21.19;43.75;101716.38;5088297;28;20048;-45
2023/06/14 04:41:12;;;;;;;9.65;4.38;;;;;;;21.19;44.15;101713.72;5089180;28;20074;-46
2023/06/14 04:43:37;;;;;;;10.18;4.40;;;;;;;21.37;43.96;101718.69;5089305;28;20032;-49
2023/06/14 04:46:10;;;;;;;6.47;3.90;;;;;;;21.42;43.88;101714.19;5087905;28;20402;-46
2023/06/14 04:48:37;;;;;;;7.75;4.20;;;;;;;21.40;43.49;101714.22;5088944;28;20157;-47
2023/06/14 04:51:03;;;;;;;11.07;4.20;;;;;;;21.36;43.91;101719.59;5088472;28;20035;-44
2023/06/14 04:53:29;;;;;;;8.88;4.38;;;;;;;21.42;43.23;101717.72;5088988;28;20071;-44
2023/06/14 04:55:54;;;;;;;11.73;4.72;;;;;;;21.49;43.11;101714.94;5087803;28;20068;-45
2023/06/14 04:58:20;;;;;;;8.50;4.15;;;;;;;21.67;42.65;101712.81;5088905;28;20558;-45
2023/06/14 05:00:45;;;;;;;11.23;4.60;;;;;;;21.60;42.56;101712.97;5089595;28;20085;-46
2023/06/14 05:03:12;;;;;;;8.00;4.30;;;;;;;21.77;42.32;101713.53;5092862;28;20078;-45
2023/06/14 05:05:39;;;;;;;9.75;4.00;;;;;;;22.00;41.93;101715.75;5092862;28;20036;-51
2023/06/14 05:08:05;;;;;;;11.68;4.10;;;;;;;22.24;41.85;101720.56;5092446;28;20036;-50
2023/06/14 05:10:31;;;;;;;8.45;3.88;;;;;;;22.24;41.20;101717.91;5092754;28;20024;-44
2023/06/14 05:12:56;;;;;;;13.10;4.30;;;;;;;22.76;40.36;101722.06;5091923;28;20085;-42
2023/06/14 05:15:25;;;;;;;9.95;4.30;;;;;;;23.83;37.48;101724.66;5092464;28;20040;-44
2023/06/14 05:17:54;;;;;;;10.32;5.22;;;;;;;25.06;35.41;101720.03;5092497;28;20032;-45
2023/06/14 05:20:19;;;;;;;10.25;4.03;;;;;;;26.51;33.17;101723.72;5092666;28;20040;-46
2023/06/14 05:22:45;;;;;;;8.23;3.75;;;;;;;27.65;31.03;101729.66;5092188;28;20124;-48
2023/06/14 05:25:10;;;;;;;7.70;3.33;;;;;;;28.50;29.52;101725.75;5092038;28;20453;-45
2023/06/14 05:27:36;;;;;;;7.18;3.40;;;;;;;29.40;27.85;101719.50;5092625;28;20036;-49
2023/06/14 05:30:03;;;;;;;6.95;3.30;;;;;;;29.98;26.94;101725.41;5091933;28;20054;-48
2023/06/14 05:32:29;;;;;;;9.85;3.47;;;;;;;29.31;27.48;101720.84;5091156;28;20040;-47
2023/06/14 05:34:54;;;;;;;10.63;3.22;;;;;;;30.12;26.63;101728.22;5091386;28;20036;-49
2023/06/14 05:37:19;;;;;;;9.27;3.38;;;;;;;30.45;25.42;101724.59;5092062;28;20115;-49
2023/06/14 05:39:45;;;;;;;5.72;3.20;;;;;;;30.21;26.24;101727.69;5091677;28;20036;-46
2023/06/14 05:42:10;;;;;;;6.22;3.08;;;;;;;31.04;24.82;101730.16;5092445;28;20032;-48
2023/06/14 05:44:36;;;;;;;7.95;3.08;;;;;;;31.42;24.81;101725.19;5092086;28;20040;-47
2023/06/14 05:47:02;;;;;;;9.10;3.50;;;;;;;31.40;23.99;101729.84;5091808;28;20100;-45
2023/06/14 05:49:27;;;;;;;6.55;3.30;;;;;;;31.78;23.44;101732.91;5091947;28;20032;-45
2023/06/14 05:51:52;;;;;;;7.10;3.20;;;;;;;31.03;24.95;101733.81;5091441;28;20070;-43
2023/06/14 05:54:17;;;;;;;11.02;3.30;;;;;;;31.70;23.25;101727.13;5091872;28;20226;-45
2023/06/14 05:56:43;;;;;;;10.35;3.42;;;;;;;31.85;22.99;101738.78;5091175;28;20036;-48
2023/06/14 05:59:08;;;;;;;7.80;3.40;;;;;;;32.00;23.00;101729.75;5091425;28;20034;-46
2023/06/14 06:01:36;;;;;;;4.75;2.95;;;;;;;31.46;23.86;101736.69;5091516;28;20097;-48
2023/06/14 06:04:02;;;;;;;8.95;3.10;;;;;;;31.52;23.62;101747.09;5091251;28;20048;-46
2023/06/14 06:06:27;;;;;;;9.52;3.10;;;;;;;32.84;22.24;101740.56;5091017;28;20070;-50
2023/06/14 06:08:52;;;;;;;8.45;3.05;;;;;;;32.34;22.77;101739.28;5090824;28;20036;-46
2023/06/14 06:11:17;;;;;;;10.00;3.10;;;;;;;33.39;21.55;101735.03;5090925;28;20066;-47
2023/06/14 06:13:43;;;;;;;7.07;3.20;;;;;;;33.11;21.80;101737.88;5090872;28;20525;-49
2023/06/14 06:16:08;;;;;;;6.35;3.30;;;;;;;32.91;21.83;101742.75;5090896;28;20402;-48
2023/06/14 06:18:34;;;;;;;9.35;3.42;;;;;;;32.16;23.14;101735.06;5091155;28;20044;-46
2023/06/14 06:21:00;;;;;;;7.78;3.10;;;;;;;33.19;22.27;101744.50;5091114;28;20032;-47
2023/06/14 06:23:25;;;;;;;10.05;3.45;;;;;;;32.95;21.41;101744.28;5091593;28;20501;-48
2023/06/14 06:25:51;;;;;;;6.75;3.47;;;;;;;31.72;22.69;101748.59;5090194;28;20024;-46
2023/06/14 06:28:17;;;;;;;7.20;3.15;;;;;;;32.70;21.48;101741.47;5091166;28;20077;-48
2023/06/14 06:30:42;;;;;;;6.78;3.42;;;;;;;32.89;21.43;101743.81;5090708;28;20036;-48
2023/06/14 06:33:08;;;;;;;6.50;3.28;;;;;;;33.11;21.04;101748.66;5091284;28;20040;-47
2023/06/14 06:35:33;;;;;;;7.05;3.20;;;;;;;33.93;20.55;101757.41;5090707;28;20032;-47
2023/06/14 06:37:59;;;;;;;6.00;3.20;;;;;;;34.03;20.54;101765.75;5090646;28;20035;-49
2023/06/14 06:40:25;;;;;;;6.82;3.25;;;;;;;33.50;21.27;101755.91;5090874;28;20039;-45
2023/06/14 06:42:50;;;;;;;7.57;2.80;;;;;;;34.26;21.61;101765.00;5090584;28;20032;-46
2023/06/14 06:45:15;;;;;;;9.00;3.22;;;;;;;33.37;21.02;101764.00;5089197;28;20054;-44
2023/06/14 06:47:41;;;;;;;10.63;3.20;;;;;;;33.09;21.73;101767.69;5071188;28;20114;-48
2023/06/14 06:50:07;;;;;;;6.93;3.20;;;;;;;33.78;20.93;101766.59;5090737;28;20028;-48
2023/06/14 06:52:33;;;;;;;9.13;3.28;;;;;;;33.33;21.47;101762.47;5090892;28;20436;-45
2023/06/14 06:54:58;;;;;;;8.48;3.10;;;;;;;33.92;20.77;101768.31;5090002;28;20107;-46
2023/06/14 06:57:23;;;;;;;6.65;3.53;;;;;;;33.18;20.74;101769.78;5090686;28;20371;-45
2023/06/14 06:59:49;;;;;;;6.25;3.10;;;;;;;33.51;21.15;101771.16;5090002;28;20548;-44
2023/06/14 07:02:15;;;;;;;8.40;3.17;;;;;;;33.85;19.82;101775.16;5090285;28;20028;-45
2023/06/14 07:04:41;;;;;;;10.73;3.10;;;;;;;34.04;20.13;101787.25;5089566;28;20133;-50
2023/06/14 07:07:06;;;;;;;5.88;3.40;;;;;;;33.61;19.74;101783.06;5090518;28;20036;-48
2023/06/14 07:09:32;;;;;;;9.30;3.47;;;;;;;33.45;20.48;101788.69;5090215;28;20036;-49
2023/06/14 07:11:57;;;;;;;7.75;3.13;;;;;;;34.23;19.54;101789.56;5089779;28;20040;-51
2023/06/14 07:14:22;;;;;;;7.25;3.22;;;;;;;34.88;19.28;101786.66;5090239;28;20048;-48
2023/06/14 07:16:49;;;;;;;9.38;3.28;;;;;;;34.24;19.19;101787.72;5088951;28;20650;-45
2023/06/14 07:19:14;;;;;;;11.40;3.50;;;;;;;34.69;19.45;101788.94;5089745;28;20032;-48
2023/06/14 07:21:40;;;;;;;5.72;3.40;;;;;;;35.00;19.35;101792.00;5090142;28;20548;-47
2023/06/14 07:24:06;;;;;;;7.90;3.50;;;;;;;34.22;19.63;101797.81;5089016;28;20040;-48
2023/06/14 07:26:32;;;;;;;11.90;3.40;;;;;;;34.68;19.33;101790.78;5089717;28;20694;-45
2023/06/14 07:28:57;;;;;;;10.00;3.72;;;;;;;33.91;19.69;101788.25;5089272;28;20035;-45
2023/06/14 07:31:22;;;;;;;9.00;3.50;;;;;;;33.83;19.99;101801.44;5088977;28;20123;-50
2023/06/14 07:33:47;;;;;;;11.23;3.67;;;;;;;33.34;21.08;101794.81;5089607;28;20032;-46
2023/06/14 07:36:13;;;;;;;9.13;3.60;;;;;;;34.73;18.90;101793.19;5089140;28;20410;-47
2023/06/14 07:38:40;;;;;;;5.63;3.42;;;;;;;34.10;20.60;101802.19;5089591;28;20675;-43
2023/06/14 07:41:05;;;;;;;6.72;3.20;;;;;;;34.54;20.25;101793.63;5089008;28;20489;-49
2023/06/14 07:43:31;;;;;;;6.80;3.50;;;;;;;34.59;20.24;101792.31;5089884;28;20085;-47
2023/06/14 07:45:56;;;;;;;12.63;3.47;;;;;;;35.09;19.37;101797.69;5088679;28;20028;-47
2023/06/14 07:48:22;;;;;;;8.00;3.50;;;;;;;35.53;19.38;101803.38;5089421;28;20074;-50
2023/06/14 07:50:47;;;;;;;11.00;3.83;;;;;;;34.94;20.01;101808.72;5089176;28;20028;-51
2023/06/14 07:53:13;;;;;;;6.85;3.28;;;;;;;35.32;19.66;101811.28;5089568;28;20402;-48
2023/06/14 07:55:39;;;;;;;9.57;3.40;;;;;;;35.37;19.36;101809.13;5089010;28;20099;-45
2023/06/14 07:58:06;;;;;;;10.18;3.80;;;;;;;35.04;19.02;101808.91;5088634;28;20028;-48
2023/06/14 08:00:31;;;;;;;7.47;3.60;;;;;;;33.47;21.03;101816.50;5089299;28;20036;-48
2023/06/14 08:02:59;;;;;;;13.55;3.60;;;;;;;33.85;20.96;101813.03;5088933;28;20453;-50
2023/06/14 08:05:28;;;;;;;8.25;3.58;;;;;;;34.74;19.86;101811.16;5088859;28;20116;-49
2023/06/14 08:07:53;;;;;;;8.45;3.60;;;;;;;34.36;20.29;101812.06;5088696;28;20036;-43
2023/06/14 08:10:19;;;;;;;9.43;3.85;;;;;;;34.35;20.21;101814.88;5088005;28;20039;-47
2023/06/14 08:12:45;;;;;;;10.32;3.60;;;;;;;34.56;20.82;101814.22;5088778;28;20124;-48
2023/06/14 08:15:11;;;;;;;17.48;3.78;;;;;;;34.14;20.39;101812.72;5088516;28;20050;-45
2023/06/14 08:17:36;;;;;;;12.30;3.40;;;;;;;34.80;20.23;101811.59;5089163;28;20512;-45
2023/06/14 08:20:04;;;;;;;10.70;3.53;;;;;;;34.95;19.72;101809.56;5087737;28;20048;-44
2023/06/14 08:22:32;;;;;;;6.68;3.42;;;;;;;35.35;19.53;101810.19;5089017;28;20040;-48
2023/06/14 08:24:57;;;;;;;9.60;3.80;;;;;;;35.06;19.55;101814.22;5088352;28;20059;-47
2023/06/14 08:27:23;;;;;;;5.57;3.35;;;;;;;34.39;20.50;101813.72;5089085;28;20028;-47
2023/06/14 08:29:48;;;;;;;9.30;3.80;;;;;;;34.53;20.47;101814.41;5088236;28;20032;-47
2023/06/14 08:32:13;;;;;;;7.35;3.55;;;;;;;34.54;20.50;101818.88;5089287;28;20114;-50
2023/06/14 08:34:39;;;;;;;13.88;3.70;;;;;;;34.76;20.47;101814.66;5089448;28;20459;-47
2023/06/14 08:37:05;;;;;;;9.02;3.97;;;;;;;34.48;20.22;101822.03;5092641;28;20035;-49
2023/06/14 08:39:30;;;;;;;8.45;3.75;;;;;;;32.90;21.43;101813.97;5092539;28;20127;-42
2023/06/14 08:41:57;;;;;;;19.80;4.13;;;;;;;32.33;22.87;101818.50;5092363;28;20123;-48
2023/06/14 08:44:22;;;;;;;12.15;3.60;;;;;;;31.81;24.00;101824.41;5092848;28;20113;-48
2023/06/14 08:46:48;;;;;;;8.15;3.95;;;;;;;30.77;24.69;101809.81;5091867;28;20494;-46
2023/06/14 08:49:16;;;;;;;6.95;3.80;;;;;;;30.57;25.93;101815.44;5092749;28;20056;-46
2023/06/14 08:51:43;;;;;;;10.23;4.25;;;;;;;29.76;25.34;101808.97;5092557;28;20573;-48
2023/06/14 08:54:11;;;;;;;7.65;3.80;;;;;;;29.83;24.98;101823.81;5092861;28;20524;-45
2023/06/14 08:56:38;;;;;;;6.53;4.20;;;;;;;29.47;24.74;101817.66;5092401;28;20032;-46
2023/06/14 08:59:04;;;;;;;10.65;3.85;;;;;;;29.73;24.56;101821.72;5092423;28;20065;-45
2023/06/14 09:01:34;;;;;;;6.70;3.75;;;;;;;29.61;24.58;101822.34;5093221;28;20185;-49
2023/06/14 09:03:59;;;;;;;7.15;4.00;;;;;;;29.43;24.64;101819.63;5092087;28;20413;-47
2023/06/14 09:06:25;;;;;;;7.63;3.90;;;;;;;29.51;25.29;101816.56;5092778;28;20038;-48
2023/06/14 09:08:50;;;;;;;7.20;3.72;;;;;;;29.57;25.54;101821.63;5092778;28;20040;-44
2023/06/14 09:11:18;;;;;;;5.25;3.45;;;;;;;30.03;24.58;101828.22;5093249;28;20441;-44
2023/06/14 09:13:45;;;;;;;9.95;3.85;;;;;;;29.57;24.05;101821.63;5091124;28;20036;-45
2023/06/14 09:16:11;;;;;;;11.68;3.70;;;;;;;29.42;24.46;101823.28;5092047;28;20056;-47
2023/06/14 09:18:39;;;;;;;5.50;3.80;;;;;;;29.50;24.95;101822.88;5092648;28;20067;-45
2023/06/14 09:21:08;;;;;;;9.40;4.00;;;;;;;29.27;24.72;101826.69;5091838;28;20038;-47
2023/06/14 09:23:40;;;;;;;7.18;3.50;;;;;;;29.97;24.59;101827.66;5092618;28;20036;-50
2023/06/14 09:26:16;;;;;;;8.05;3.55;;;;;;;30.00;24.84;101824.81;5091217;28;20032;-46
2023/06/14 09:28:43;;;;;;;8.13;3.65;;;;;;;30.07;24.98;101821.69;5091545;28;20081;-47
2023/06/14 09:31:11;;;;;;;9.73;3.70;;;;;;;29.76;24.14;101829.63;5092439;28;20028;-49
2023/06/14 09:33:36;;;;;;;9.73;3.90;;;;;;;29.60;24.30;101824.16;5092396;28;20044;-47
2023/06/14 09:36:02;;;;;;;11.35;3.83;;;;;;;29.40;24.53;101818.91;5091107;28;20028;-50
2023/06/14 09:38:28;;;;;;;7.63;3.75;;;;;;;29.72;25.23;101828.91;5092164;28;20473;-49
2023/06/14 09:40:57;;;;;;;6.40;4.00;;;;;;;29.55;24.81;101825.34;5091375;28;20068;-47
2023/06/14 09:43:23;;;;;;;12.43;4.18;;;;;;;29.77;24.22;101826.84;5092121;28;20043;-47
2023/06/14 09:45:50;;;;;;;6.40;3.55;;;;;;;29.54;25.06;101819.09;5090844;28;20032;-46
2023/06/14 09:48:17;;;;;;;11.95;3.70;;;;;;;29.44;24.81;101828.56;5091331;28;20079;-46
2023/06/14 09:50:46;;;;;;;7.05;3.92;;;;;;;29.17;24.91;101825.41;5073554;28;20044;-45
2023/06/14 09:53:12;;;;;;;6.18;3.60;;;;;;;29.35;24.36;101824.50;5091978;28;20525;-47
2023/06/14 09:55:40;;;;;;;6.20;3.17;;;;;;;29.49;24.09;101826.53;5091101;28;20514;-46
2023/06/14 09:58:07;;;;;;;7.20;3.65;;;;;;;29.11;23.61;101822.13;5091158;28;20032;-48
2023/06/14 10:00:34;;;;;;;4.68;3.40;;;;;;;29.34;23.77;101827.28;5091506;28;20038;-44
2023/06/14 10:03:06;;;;;;;5.60;3.50;;;;;;;29.24;24.22;101828.66;5091236;28;20156;-53
2023/06/14 10:05:36;;;;;;;8.35;3.67;;;;;;;29.65;23.57;101831.97;5090881;28;20072;-45
2023/06/14 10:08:10;;;;;;;6.82;3.20;;;;;;;29.73;23.76;101833.34;5091189;28;20032;-47
2023/06/14 10:10:39;;;;;;;12.27;3.55;;;;;;;29.32;22.87;101831.84;5091592;28;20040;-48
2023/06/14 10:13:05;;;;;;;7.40;3.10;;;;;;;29.34;22.29;101830.84;5089810;28;20035;-50
2023/06/14 10:15:41;;;;;;;4.35;2.85;;;;;;;29.48;22.49;101824.78;5090581;28;20047;-47
2023/06/14 10:18:31;;;;;;;4.70;3.22;;;;;;;29.87;22.74;101827.25;5090667;28;20426;-45
2023/06/14 10:21:16;;;;;;;4.07;3.22;;;;;;;29.89;22.62;101837.94;5091036;28;20043;-45
2023/06/14 10:23:44;;;;;;;5.75;3.22;;;;;;;29.56;22.46;101829.75;5073010;28;20028;-42
2023/06/14 10:26:19;;;;;;;9.13;3.10;;;;;;;29.93;23.24;101826.09;5090689;28;20119;-45
2023/06/14 10:29:01;;;;;;;4.72;3.10;;;;;;;29.66;22.98;101829.22;5090801;28;20028;-44
2023/06/14 10:31:44;;;;;;;7.32;2.75;;;;;;;29.77;21.89;101825.97;5091515;28;20028;-49
2023/06/14 10:34:30;;;;;;;6.78;2.85;;;;;;;29.63;21.15;101820.44;5091309;28;20067;-45
2023/06/14 10:37:13;;;;;;;4.38;2.90;;;;;;;29.54;21.94;101827.16;5090199;28;20438;-47
2023/06/14 10:39:45;;;;;;;5.70;2.78;;;;;;;30.10;21.20;101824.25;5090774;28;20036;-45
2023/06/14 10:42:10;;;;;;;6.53;2.72;;;;;;;30.20;21.49;101820.09;5090702;28;20393;-45
2023/06/14 10:44:59;;;;;;;6.35;3.00;;;;;;;30.54;21.53;101823.69;5072357;28;20100;-46
2023/06/14 10:47:32;;;;;;;3.63;2.53;;;;;;;30.03;22.22;101824.66;5090261;28;20059;-44
2023/06/14 10:50:02;;;;;;;6.50;2.65;;;;;;;29.99;21.04;101831.16;5090093;28;20502;-46
2023/06/14 10:52:28;;;;;;;4.10;2.53;;;;;;;30.43;21.55;101831.47;5090649;28;20040;-45
2023/06/14 10:55:21;;;;;;;3.58;2.60;;;;;;;30.29;20.82;101832.19;5090222;28;20036;-44
2023/06/14 10:57:51;;;;;;;5.88;2.42;;;;;;;30.38;20.43;101826.31;5089964;28;20540;-44
2023/06/14 11:00:21;;;;;;;3.45;2.50;;;;;;;29.82;21.24;101826.63;5090668;28;20493;-47
2023/06/14 11:03:06;;;;;;;4.55;2.53;;;;;;;30.09;21.64;101835.94;5090509;28;20055;-44
2023/06/14 11:05:42;;;;;;;4.35;2.55;;;;;;;30.14;20.68;101833.00;5090254;28;20126;-45
2023/06/14 11:08:43;;;;;;;4.25;2.40;;;;;;;30.59;20.88;101818.94;5090193;28;20036;-42
2023/06/14 11:11:09;;;;;;;3.55;2.30;;;;;;;30.11;20.92;101814.34;5090371;28;20028;-46
2023/06/14 11:13:38;;;;;;;4.60;2.38;;;;;;;29.87;21.98;101824.56;5090413;28;20038;-46
2023/06/14 11:16:16;;;;;;;3.55;2.20;;;;;;;30.33;21.29;101814.06;5089228;28;20494;-45
2023/06/14 11:18:44;;;;;;;3.88;2.17;;;;;;;30.24;22.07;101813.63;5089513;28;20039;-46
2023/06/14 11:21:18;;;;;;;3.63;2.25;;;;;;;30.07;21.31;101810.09;5040727;28;20393;-46
2023/06/14 11:23:49;;;;;;;3.78;2.00;;;;;;;30.45;20.67;101808.00;5026400;28;20129;-45
2023/06/14 11:26:15;;;;;;;5.22;2.00;;;;;;;30.36;20.77;101813.91;5026267;28;20042;-47
2023/06/14 11:28:41;;;;;;;2.97;2.05;;;;;;;30.46;20.95;101817.81;5026690;28;20144;-43